sensor_id;sensor_type;location;lat;lon;timestamp;temperature;humidity
68912;SHT31;55953;51.650;-0.522;2023-02-12T00:01:27;8.89;76.62
68912;SHT31;55953;51.650;-0.522;2023-02-12T00:03:56;8.87;76.63
68912;SHT31;55953;51.650;-0.522;2023-02-12T00:06:24;8.76;76.78
68912;SHT31;55953;51.650;-0.522;2023-02-12T00:08:53;8.68;77.20
68912;SHT31;55953;51.650;-0.522;2023-02-12T00:11:24;8.74;77.06
68912;SHT31;55953;51.650;-0.522;2023-02-12T00:13:55;8.71;76.92
68912;SHT31;55953;51.650;-0.522;2023-02-12T00:16:25;8.65;77.04
68912;SHT31;55953;51.650;-0.522;2023-02-12T00:18:56;8.65;77.17
68912;SHT31;55953;51.650;-0.522;2023-02-12T00:21:25;8.68;77.06
68912;SHT31;55953;51.650;-0.522;2023-02-12T00:23:55;8.69;77.01
68912;SHT31;55953;51.650;-0.522;2023-02-12T00:26:23;8.69;76.90
68912;SHT31;55953;51.650;-0.522;2023-02-12T00:28:52;8.64;76.88
68912;SHT31;55953;51.650;-0.522;2023-02-12T00:31:23;8.66;77.00
68912;SHT31;55953;51.650;-0.522;2023-02-12T00:33:56;8.66;76.95
68912;SHT31;55953;51.650;-0.522;2023-02-12T00:36:27;8.61;77.14
68912;SHT31;55953;51.650;-0.522;2023-02-12T00:38:59;8.62;77.20
68912;SHT31;55953;51.650;-0.522;2023-02-12T00:41:27;8.55;77.15
68912;SHT31;55953;51.650;-0.522;2023-02-12T00:43:55;8.51;77.22
68912;SHT31;55953;51.650;-0.522;2023-02-12T00:46:23;8.58;77.22
68912;SHT31;55953;51.650;-0.522;2023-02-12T00:48:51;8.56;77.09
68912;SHT31;55953;51.650;-0.522;2023-02-12T00:51:19;8.50;77.25
68912;SHT31;55953;51.650;-0.522;2023-02-12T00:53:48;8.48;77.28
68912;SHT31;55953;51.650;-0.522;2023-02-12T00:56:16;8.35;77.37
68912;SHT31;55953;51.650;-0.522;2023-02-12T00:58:44;8.40;77.54
68912;SHT31;55953;51.650;-0.522;2023-02-12T01:01:11;8.49;77.39
68912;SHT31;55953;51.650;-0.522;2023-02-12T01:03:40;8.50;77.33
68912;SHT31;55953;51.650;-0.522;2023-02-12T01:06:08;8.57;77.49
68912;SHT31;55953;51.650;-0.522;2023-02-12T01:08:35;8.74;76.97
68912;SHT31;55953;51.650;-0.522;2023-02-12T01:11:04;8.79;76.68
68912;SHT31;55953;51.650;-0.522;2023-02-12T01:13:33;8.65;76.65
68912;SHT31;55953;51.650;-0.522;2023-02-12T01:18:37;8.40;77.66
68912;SHT31;55953;51.650;-0.522;2023-02-12T01:23:40;8.35;77.76
68912;SHT31;55953;51.650;-0.522;2023-02-12T01:26:09;8.41;77.40
68912;SHT31;55953;51.650;-0.522;2023-02-12T01:28:39;8.46;77.32
68912;SHT31;55953;51.650;-0.522;2023-02-12T01:31:11;8.55;77.00
68912;SHT31;55953;51.650;-0.522;2023-02-12T01:33:43;8.51;77.15
68912;SHT31;55953;51.650;-0.522;2023-02-12T01:36:18;8.55;77.38
68912;SHT31;55953;51.650;-0.522;2023-02-12T01:38:48;8.68;76.93
68912;SHT31;55953;51.650;-0.522;2023-02-12T01:41:20;8.74;76.82
68912;SHT31;55953;51.650;-0.522;2023-02-12T01:44:09;8.84;76.56
68912;SHT31;55953;51.650;-0.522;2023-02-12T01:46:54;8.77;76.64
68912;SHT31;55953;51.650;-0.522;2023-02-12T01:49:29;8.74;76.84
68912;SHT31;55953;51.650;-0.522;2023-02-12T01:54:50;8.62;77.08
68912;SHT31;55953;51.650;-0.522;2023-02-12T01:57:24;8.52;77.25
68912;SHT31;55953;51.650;-0.522;2023-02-12T01:59:57;8.52;77.32
68912;SHT31;55953;51.650;-0.522;2023-02-12T02:02:41;8.55;77.10
68912;SHT31;55953;51.650;-0.522;2023-02-12T02:05:23;8.58;77.09
68912;SHT31;55953;51.650;-0.522;2023-02-12T02:07:59;8.59;76.88
68912;SHT31;55953;51.650;-0.522;2023-02-12T02:10:28;8.45;77.16
68912;SHT31;55953;51.650;-0.522;2023-02-12T02:12:57;8.42;77.33
68912;SHT31;55953;51.650;-0.522;2023-02-12T02:15:45;8.23;77.63
68912;SHT31;55953;51.650;-0.522;2023-02-12T02:19:01;8.18;77.95
68912;SHT31;55953;51.650;-0.522;2023-02-12T02:24:53;8.18;77.85
68912;SHT31;55953;51.650;-0.522;2023-02-12T02:33:56;8.15;77.99
68912;SHT31;55953;51.650;-0.522;2023-02-12T02:37:04;8.09;77.98
68912;SHT31;55953;51.650;-0.522;2023-02-12T02:39:50;8.19;77.82
68912;SHT31;55953;51.650;-0.522;2023-02-12T02:42:32;8.14;77.89
68912;SHT31;55953;51.650;-0.522;2023-02-12T02:48:15;8.35;77.52
68912;SHT31;55953;51.650;-0.522;2023-02-12T02:51:19;8.42;77.31
68912;SHT31;55953;51.650;-0.522;2023-02-12T02:53:46;8.48;77.22
68912;SHT31;55953;51.650;-0.522;2023-02-12T02:56:23;8.48;77.29
68912;SHT31;55953;51.650;-0.522;2023-02-12T02:59:09;8.57;77.05
68912;SHT31;55953;51.650;-0.522;2023-02-12T03:01:43;8.54;77.10
68912;SHT31;55953;51.650;-0.522;2023-02-12T03:09:48;8.66;76.85
68912;SHT31;55953;51.650;-0.522;2023-02-12T03:12:27;8.76;76.76
68912;SHT31;55953;51.650;-0.522;2023-02-12T03:15:09;8.74;76.69
68912;SHT31;55953;51.650;-0.522;2023-02-12T03:17:41;8.56;76.87
68912;SHT31;55953;51.650;-0.522;2023-02-12T03:25:32;8.33;77.65
68912;SHT31;55953;51.650;-0.522;2023-02-12T03:28:12;8.42;77.42
68912;SHT31;55953;51.650;-0.522;2023-02-12T03:31:02;8.49;77.34
68912;SHT31;55953;51.650;-0.522;2023-02-12T03:39:35;8.51;77.16
68912;SHT31;55953;51.650;-0.522;2023-02-12T03:42:36;8.52;77.30
68912;SHT31;55953;51.650;-0.522;2023-02-12T03:53:45;8.66;76.89
68912;SHT31;55953;51.650;-0.522;2023-02-12T03:56:18;8.72;76.72
68912;SHT31;55953;51.650;-0.522;2023-02-12T03:58:58;8.63;76.49
68912;SHT31;55953;51.650;-0.522;2023-02-12T04:01:26;8.44;77.02
68912;SHT31;55953;51.650;-0.522;2023-02-12T04:03:55;8.44;77.22
68912;SHT31;55953;51.650;-0.522;2023-02-12T04:06:24;8.40;77.30
68912;SHT31;55953;51.650;-0.522;2023-02-12T04:08:58;8.40;77.24
68912;SHT31;55953;51.650;-0.522;2023-02-12T04:18:01;8.29;77.40
68912;SHT31;55953;51.650;-0.522;2023-02-12T04:32:06;8.44;76.67
68912;SHT31;55953;51.650;-0.522;2023-02-12T04:35:11;8.43;76.43
68912;SHT31;55953;51.650;-0.522;2023-02-12T04:38:08;8.27;77.11
68912;SHT31;55953;51.650;-0.522;2023-02-12T04:40:45;8.21;77.40
68912;SHT31;55953;51.650;-0.522;2023-02-12T04:43:25;8.11;77.74
68912;SHT31;55953;51.650;-0.522;2023-02-12T04:46:02;8.10;77.86
68912;SHT31;55953;51.650;-0.522;2023-02-12T04:48:32;8.13;77.86
68912;SHT31;55953;51.650;-0.522;2023-02-12T04:51:02;8.16;77.86
68912;SHT31;55953;51.650;-0.522;2023-02-12T04:53:30;8.19;77.79
68912;SHT31;55953;51.650;-0.522;2023-02-12T04:55:58;8.30;77.73
68912;SHT31;55953;51.650;-0.522;2023-02-12T04:58:26;8.41;77.28
68912;SHT31;55953;51.650;-0.522;2023-02-12T05:00:57;8.35;77.17
68912;SHT31;55953;51.650;-0.522;2023-02-12T05:03:26;8.31;77.51
68912;SHT31;55953;51.650;-0.522;2023-02-12T05:05:54;8.35;77.20
68912;SHT31;55953;51.650;-0.522;2023-02-12T05:08:22;8.38;77.30
68912;SHT31;55953;51.650;-0.522;2023-02-12T05:10:50;8.48;77.15
68912;SHT31;55953;51.650;-0.522;2023-02-12T05:13:17;8.54;76.90
68912;SHT31;55953;51.650;-0.522;2023-02-12T05:15:45;8.52;76.70
68912;SHT31;55953;51.650;-0.522;2023-02-12T05:18:13;8.49;76.86
68912;SHT31;55953;51.650;-0.522;2023-02-12T05:20:41;8.51;76.62
68912;SHT31;55953;51.650;-0.522;2023-02-12T05:23:09;8.46;76.93
68912;SHT31;55953;51.650;-0.522;2023-02-12T05:25:36;8.47;76.89
68912;SHT31;55953;51.650;-0.522;2023-02-12T05:28:04;8.48;76.92
68912;SHT31;55953;51.650;-0.522;2023-02-12T05:30:32;8.66;76.82
68912;SHT31;55953;51.650;-0.522;2023-02-12T05:33:00;8.75;76.33
68912;SHT31;55953;51.650;-0.522;2023-02-12T05:35:28;8.69;76.47
68912;SHT31;55953;51.650;-0.522;2023-02-12T05:37:56;8.66;76.66
68912;SHT31;55953;51.650;-0.522;2023-02-12T05:40:24;8.64;76.68
68912;SHT31;55953;51.650;-0.522;2023-02-12T05:42:51;8.55;76.75
68912;SHT31;55953;51.650;-0.522;2023-02-12T05:45:19;8.51;76.95
68912;SHT31;55953;51.650;-0.522;2023-02-12T05:47:47;8.51;76.80
68912;SHT31;55953;51.650;-0.522;2023-02-12T05:50:15;8.50;76.61
68912;SHT31;55953;51.650;-0.522;2023-02-12T05:52:45;8.44;76.75
68912;SHT31;55953;51.650;-0.522;2023-02-12T05:55:13;8.45;76.93
68912;SHT31;55953;51.650;-0.522;2023-02-12T05:57:41;8.56;76.55
68912;SHT31;55953;51.650;-0.522;2023-02-12T06:00:09;8.51;76.58
68912;SHT31;55953;51.650;-0.522;2023-02-12T06:02:38;8.48;76.71
68912;SHT31;55953;51.650;-0.522;2023-02-12T06:05:07;8.52;76.84
68912;SHT31;55953;51.650;-0.522;2023-02-12T06:07:36;8.60;76.61
68912;SHT31;55953;51.650;-0.522;2023-02-12T06:10:04;8.58;76.71
68912;SHT31;55953;51.650;-0.522;2023-02-12T06:12:33;8.54;76.80
68912;SHT31;55953;51.650;-0.522;2023-02-12T06:15:01;8.50;76.79
68912;SHT31;55953;51.650;-0.522;2023-02-12T06:17:29;8.52;76.84
68912;SHT31;55953;51.650;-0.522;2023-02-12T06:19:57;8.45;76.74
68912;SHT31;55953;51.650;-0.522;2023-02-12T06:22:26;8.35;77.25
68912;SHT31;55953;51.650;-0.522;2023-02-12T06:24:55;8.43;77.24
68912;SHT31;55953;51.650;-0.522;2023-02-12T06:27:22;8.49;76.98
68912;SHT31;55953;51.650;-0.522;2023-02-12T06:29:50;8.49;76.96
68912;SHT31;55953;51.650;-0.522;2023-02-12T06:32:18;8.46;77.06
68912;SHT31;55953;51.650;-0.522;2023-02-12T06:34:46;8.41;77.11
68912;SHT31;55953;51.650;-0.522;2023-02-12T06:37:14;8.40;77.37
68912;SHT31;55953;51.650;-0.522;2023-02-12T06:39:41;8.53;77.27
68912;SHT31;55953;51.650;-0.522;2023-02-12T06:42:09;8.57;76.94
68912;SHT31;55953;51.650;-0.522;2023-02-12T06:44:37;8.51;77.14
68912;SHT31;55953;51.650;-0.522;2023-02-12T06:47:05;8.51;77.16
68912;SHT31;55953;51.650;-0.522;2023-02-12T06:49:33;8.44;77.24
68912;SHT31;55953;51.650;-0.522;2023-02-12T06:52:01;8.44;77.41
68912;SHT31;55953;51.650;-0.522;2023-02-12T06:54:30;8.53;77.22
68912;SHT31;55953;51.650;-0.522;2023-02-12T06:56:58;8.48;77.18
68912;SHT31;55953;51.650;-0.522;2023-02-12T06:59:25;8.39;77.23
68912;SHT31;55953;51.650;-0.522;2023-02-12T07:01:53;8.31;77.56
68912;SHT31;55953;51.650;-0.522;2023-02-12T07:04:21;8.32;77.70
68912;SHT31;55953;51.650;-0.522;2023-02-12T07:06:49;8.31;77.64
68912;SHT31;55953;51.650;-0.522;2023-02-12T07:09:18;8.29;77.78
68912;SHT31;55953;51.650;-0.522;2023-02-12T07:11:46;8.34;77.76
68912;SHT31;55953;51.650;-0.522;2023-02-12T07:14:14;8.34;77.59
68912;SHT31;55953;51.650;-0.522;2023-02-12T07:16:43;8.29;77.73
68912;SHT31;55953;51.650;-0.522;2023-02-12T07:19:12;8.31;77.85
68912;SHT31;55953;51.650;-0.522;2023-02-12T07:21:41;8.34;77.75
68912;SHT31;55953;51.650;-0.522;2023-02-12T07:24:09;8.26;77.73
68912;SHT31;55953;51.650;-0.522;2023-02-12T07:26:38;8.13;78.06
68912;SHT31;55953;51.650;-0.522;2023-02-12T07:29:07;8.10;78.23
68912;SHT31;55953;51.650;-0.522;2023-02-12T07:31:35;8.07;78.43
68912;SHT31;55953;51.650;-0.522;2023-02-12T07:34:03;8.13;78.51
68912;SHT31;55953;51.650;-0.522;2023-02-12T07:36:31;8.20;78.26
68912;SHT31;55953;51.650;-0.522;2023-02-12T07:39:00;8.15;78.23
68912;SHT31;55953;51.650;-0.522;2023-02-12T07:41:30;8.16;78.33
68912;SHT31;55953;51.650;-0.522;2023-02-12T07:44:02;8.08;78.42
68912;SHT31;55953;51.650;-0.522;2023-02-12T07:46:38;8.05;78.65
68912;SHT31;55953;51.650;-0.522;2023-02-12T07:49:18;8.00;78.66
68912;SHT31;55953;51.650;-0.522;2023-02-12T07:51:49;7.98;78.85
68912;SHT31;55953;51.650;-0.522;2023-02-12T07:54:17;8.05;79.00
68912;SHT31;55953;51.650;-0.522;2023-02-12T07:56:45;8.18;78.71
68912;SHT31;55953;51.650;-0.522;2023-02-12T07:59:15;8.25;78.57
68912;SHT31;55953;51.650;-0.522;2023-02-12T08:01:46;8.20;78.56
68912;SHT31;55953;51.650;-0.522;2023-02-12T08:04:18;8.07;78.85
68912;SHT31;55953;51.650;-0.522;2023-02-12T08:06:48;8.14;79.03
68912;SHT31;55953;51.650;-0.522;2023-02-12T08:09:21;8.24;78.69
68912;SHT31;55953;51.650;-0.522;2023-02-12T08:11:54;8.35;78.33
68912;SHT31;55953;51.650;-0.522;2023-02-12T08:14:22;8.33;78.45
68912;SHT31;55953;51.650;-0.522;2023-02-12T08:16:50;8.25;78.66
68912;SHT31;55953;51.650;-0.522;2023-02-12T08:19:19;8.23;78.88
68912;SHT31;55953;51.650;-0.522;2023-02-12T08:21:53;8.26;78.76
68912;SHT31;55953;51.650;-0.522;2023-02-12T08:24:23;8.29;78.93
68912;SHT31;55953;51.650;-0.522;2023-02-12T08:26:52;8.37;78.51
68912;SHT31;55953;51.650;-0.522;2023-02-12T08:29:29;8.40;78.40
68912;SHT31;55953;51.650;-0.522;2023-02-12T08:31:58;8.47;78.39
68912;SHT31;55953;51.650;-0.522;2023-02-12T08:34:29;8.65;78.27
68912;SHT31;55953;51.650;-0.522;2023-02-12T08:37:00;8.90;77.59
68912;SHT31;55953;51.650;-0.522;2023-02-12T08:39:29;9.02;77.42
68912;SHT31;55953;51.650;-0.522;2023-02-12T08:41:57;9.01;77.28
68912;SHT31;55953;51.650;-0.522;2023-02-12T08:44:27;8.98;77.47
68912;SHT31;55953;51.650;-0.522;2023-02-12T08:46:56;8.95;77.48
68912;SHT31;55953;51.650;-0.522;2023-02-12T08:49:25;8.92;77.56
68912;SHT31;55953;51.650;-0.522;2023-02-12T08:51:57;8.97;77.44
68912;SHT31;55953;51.650;-0.522;2023-02-12T08:54:26;9.05;77.39
68912;SHT31;55953;51.650;-0.522;2023-02-12T08:56:58;9.10;77.24
68912;SHT31;55953;51.650;-0.522;2023-02-12T08:59:28;9.06;77.18
68912;SHT31;55953;51.650;-0.522;2023-02-12T09:01:57;9.09;76.94
68912;SHT31;55953;51.650;-0.522;2023-02-12T09:04:26;9.05;76.95
68912;SHT31;55953;51.650;-0.522;2023-02-12T09:06:55;9.01;76.98
68912;SHT31;55953;51.650;-0.522;2023-02-12T09:09:23;9.07;77.20
68912;SHT31;55953;51.650;-0.522;2023-02-12T09:11:51;9.11;77.20
68912;SHT31;55953;51.650;-0.522;2023-02-12T09:14:19;9.12;77.09
68912;SHT31;55953;51.650;-0.522;2023-02-12T09:16:51;9.22;76.56
68912;SHT31;55953;51.650;-0.522;2023-02-12T09:19:20;9.31;76.52
68912;SHT31;55953;51.650;-0.522;2023-02-12T09:21:49;9.38;76.14
68912;SHT31;55953;51.650;-0.522;2023-02-12T09:24:23;9.32;76.08
68912;SHT31;55953;51.650;-0.522;2023-02-12T09:26:54;9.33;76.12
68912;SHT31;55953;51.650;-0.522;2023-02-12T09:29:22;9.39;75.67
68912;SHT31;55953;51.650;-0.522;2023-02-12T09:31:50;9.38;75.66
68912;SHT31;55953;51.650;-0.522;2023-02-12T09:34:19;9.41;75.85
68912;SHT31;55953;51.650;-0.522;2023-02-12T09:36:47;9.50;75.68
68912;SHT31;55953;51.650;-0.522;2023-02-12T09:39:14;9.66;75.62
68912;SHT31;55953;51.650;-0.522;2023-02-12T09:41:53;9.81;75.29
68912;SHT31;55953;51.650;-0.522;2023-02-12T09:45:09;9.92;75.16
68912;SHT31;55953;51.650;-0.522;2023-02-12T09:47:53;10.00;74.87
68912;SHT31;55953;51.650;-0.522;2023-02-12T09:53:21;10.15;74.58
68912;SHT31;55953;51.650;-0.522;2023-02-12T09:55:55;10.20;74.30
68912;SHT31;55953;51.650;-0.522;2023-02-12T09:58:32;10.20;74.39
68912;SHT31;55953;51.650;-0.522;2023-02-12T10:01:18;10.29;74.49
68912;SHT31;55953;51.650;-0.522;2023-02-12T10:03:49;10.32;74.06
68912;SHT31;55953;51.650;-0.522;2023-02-12T10:06:20;10.33;73.87
68912;SHT31;55953;51.650;-0.522;2023-02-12T10:12:07;10.40;73.75
68912;SHT31;55953;51.650;-0.522;2023-02-12T10:17:35;10.57;73.38
68912;SHT31;55953;51.650;-0.522;2023-02-12T10:23:20;10.55;72.51
68912;SHT31;55953;51.650;-0.522;2023-02-12T10:26:21;10.57;72.71
68912;SHT31;55953;51.650;-0.522;2023-02-12T10:28:53;10.67;72.75
68912;SHT31;55953;51.650;-0.522;2023-02-12T10:31:28;10.68;72.70
68912;SHT31;55953;51.650;-0.522;2023-02-12T10:34:14;10.66;72.66
68912;SHT31;55953;51.650;-0.522;2023-02-12T10:36:50;10.50;72.87
68912;SHT31;55953;51.650;-0.522;2023-02-12T10:39:28;10.38;73.29
68912;SHT31;55953;51.650;-0.522;2023-02-12T10:42:15;10.33;73.68
68912;SHT31;55953;51.650;-0.522;2023-02-12T10:44:52;10.29;73.98
68912;SHT31;55953;51.650;-0.522;2023-02-12T10:47:20;10.22;74.28
68912;SHT31;55953;51.650;-0.522;2023-02-12T10:50:00;10.14;74.65
68912;SHT31;55953;51.650;-0.522;2023-02-12T10:55:34;10.14;75.16
68912;SHT31;55953;51.650;-0.522;2023-02-12T10:58:03;10.19;75.28
68912;SHT31;55953;51.650;-0.522;2023-02-12T11:00:46;10.15;75.08
68912;SHT31;55953;51.650;-0.522;2023-02-12T11:03:27;10.10;74.98
68912;SHT31;55953;51.650;-0.522;2023-02-12T11:06:15;10.03;74.78
68912;SHT31;55953;51.650;-0.522;2023-02-12T11:08:46;10.02;74.73
68912;SHT31;55953;51.650;-0.522;2023-02-12T11:16:50;9.82;74.89
68912;SHT31;55953;51.650;-0.522;2023-02-12T11:19:23;9.79;75.05
68912;SHT31;55953;51.650;-0.522;2023-02-12T11:24:58;9.87;75.19
68912;SHT31;55953;51.650;-0.522;2023-02-12T11:27:34;9.90;74.83
68912;SHT31;55953;51.650;-0.522;2023-02-12T11:30:14;9.92;74.63
68912;SHT31;55953;51.650;-0.522;2023-02-12T11:32:48;10.02;74.34
68912;SHT31;55953;51.650;-0.522;2023-02-12T11:35:19;10.04;73.59
68912;SHT31;55953;51.650;-0.522;2023-02-12T11:37:57;9.91;73.47
68912;SHT31;55953;51.650;-0.522;2023-02-12T11:40:28;9.85;73.33
68912;SHT31;55953;51.650;-0.522;2023-02-12T11:43:03;9.82;73.81
68912;SHT31;55953;51.650;-0.522;2023-02-12T11:45:36;9.84;73.85
68912;SHT31;55953;51.650;-0.522;2023-02-12T11:50:54;9.83;73.62
68912;SHT31;55953;51.650;-0.522;2023-02-12T11:53:33;9.81;73.53
68912;SHT31;55953;51.650;-0.522;2023-02-12T11:56:12;9.76;73.28
68912;SHT31;55953;51.650;-0.522;2023-02-12T11:58:41;9.69;73.46
68912;SHT31;55953;51.650;-0.522;2023-02-12T12:03:54;9.56;73.37
68912;SHT31;55953;51.650;-0.522;2023-02-12T12:09:19;9.47;73.89
68912;SHT31;55953;51.650;-0.522;2023-02-12T12:12:03;9.53;73.73
68912;SHT31;55953;51.650;-0.522;2023-02-12T12:27:31;9.54;73.95
68912;SHT31;55953;51.650;-0.522;2023-02-12T12:33:14;9.54;73.62
68912;SHT31;55953;51.650;-0.522;2023-02-12T12:38:58;9.53;73.50
68912;SHT31;55953;51.650;-0.522;2023-02-12T12:48:40;9.35;73.71
68912;SHT31;55953;51.650;-0.522;2023-02-12T12:51:29;9.31;73.85
68912;SHT31;55953;51.650;-0.522;2023-02-12T13:06:31;9.28;74.49
68912;SHT31;55953;51.650;-0.522;2023-02-12T13:27:48;9.40;74.68
68912;SHT31;55953;51.650;-0.522;2023-02-12T13:32:41;9.55;74.37
68912;SHT31;55953;51.650;-0.522;2023-02-12T13:35:20;9.61;74.02
68912;SHT31;55953;51.650;-0.522;2023-02-12T13:37:52;9.68;73.88
68912;SHT31;55953;51.650;-0.522;2023-02-12T13:40:26;9.68;73.76
68912;SHT31;55953;51.650;-0.522;2023-02-12T13:43:05;9.63;73.70
68912;SHT31;55953;51.650;-0.522;2023-02-12T13:57:12;9.76;73.95
68912;SHT31;55953;51.650;-0.522;2023-02-12T13:59:44;9.79;73.71
68912;SHT31;55953;51.650;-0.522;2023-02-12T14:02:26;9.86;73.86
68912;SHT31;55953;51.650;-0.522;2023-02-12T14:04:56;9.81;73.84
68912;SHT31;55953;51.650;-0.522;2023-02-12T14:07:46;9.73;74.07
68912;SHT31;55953;51.650;-0.522;2023-02-12T14:12:51;9.66;73.85
68912;SHT31;55953;51.650;-0.522;2023-02-12T14:18:05;9.61;74.27
68912;SHT31;55953;51.650;-0.522;2023-02-12T14:21:32;9.62;74.35
68912;SHT31;55953;51.650;-0.522;2023-02-12T14:23:40;9.62;74.44
68912;SHT31;55953;51.650;-0.522;2023-02-12T14:26:13;9.64;74.32
68912;SHT31;55953;51.650;-0.522;2023-02-12T14:39:00;9.71;74.53
68912;SHT31;55953;51.650;-0.522;2023-02-12T14:42:41;9.89;74.65
68912;SHT31;55953;51.650;-0.522;2023-02-12T14:44:44;9.98;74.00
68912;SHT31;55953;51.650;-0.522;2023-02-12T14:50:02;10.11;73.94
68912;SHT31;55953;51.650;-0.522;2023-02-12T14:52:42;10.20;73.49
68912;SHT31;55953;51.650;-0.522;2023-02-12T14:55:27;10.13;73.61
68912;SHT31;55953;51.650;-0.522;2023-02-12T14:58:04;10.15;73.75
68912;SHT31;55953;51.650;-0.522;2023-02-12T15:00:47;10.18;73.72
68912;SHT31;55953;51.650;-0.522;2023-02-12T15:03:24;10.17;73.61
68912;SHT31;55953;51.650;-0.522;2023-02-12T15:06:20;10.18;73.97
68912;SHT31;55953;51.650;-0.522;2023-02-12T15:08:59;10.13;73.81
68912;SHT31;55953;51.650;-0.522;2023-02-12T15:11:42;10.07;73.87
68912;SHT31;55953;51.650;-0.522;2023-02-12T15:14:34;10.09;74.30
68912;SHT31;55953;51.650;-0.522;2023-02-12T15:17:25;10.14;74.09
68912;SHT31;55953;51.650;-0.522;2023-02-12T15:22:53;10.07;74.04
68912;SHT31;55953;51.650;-0.522;2023-02-12T15:25:25;10.11;74.37
68912;SHT31;55953;51.650;-0.522;2023-02-12T15:27:59;10.14;74.14
68912;SHT31;55953;51.650;-0.522;2023-02-12T15:30:42;10.12;74.20
68912;SHT31;55953;51.650;-0.522;2023-02-12T15:33:16;10.09;74.36
68912;SHT31;55953;51.650;-0.522;2023-02-12T15:35:55;10.05;74.48
68912;SHT31;55953;51.650;-0.522;2023-02-12T15:38:32;10.04;74.58
68912;SHT31;55953;51.650;-0.522;2023-02-12T15:41:22;10.02;74.60
68912;SHT31;55953;51.650;-0.522;2023-02-12T15:46:58;9.75;74.91
68912;SHT31;55953;51.650;-0.522;2023-02-12T15:49:35;9.67;75.13
68912;SHT31;55953;51.650;-0.522;2023-02-12T15:52:09;9.60;75.29
68912;SHT31;55953;51.650;-0.522;2023-02-12T15:54:45;9.63;75.36
68912;SHT31;55953;51.650;-0.522;2023-02-12T15:57:19;9.64;75.38
68912;SHT31;55953;51.650;-0.522;2023-02-12T15:59:50;9.65;75.62
68912;SHT31;55953;51.650;-0.522;2023-02-12T16:02:25;9.67;75.72
68912;SHT31;55953;51.650;-0.522;2023-02-12T16:04:56;9.76;75.59
68912;SHT31;55953;51.650;-0.522;2023-02-12T16:07:29;9.75;75.58
68912;SHT31;55953;51.650;-0.522;2023-02-12T16:10:03;9.77;75.56
68912;SHT31;55953;51.650;-0.522;2023-02-12T16:12:33;9.80;75.64
68912;SHT31;55953;51.650;-0.522;2023-02-12T16:15:04;9.91;75.40
68912;SHT31;55953;51.650;-0.522;2023-02-12T16:17:34;9.96;75.18
68912;SHT31;55953;51.650;-0.522;2023-02-12T16:20:17;9.93;75.11
68912;SHT31;55953;51.650;-0.522;2023-02-12T16:22:52;9.84;75.33
68912;SHT31;55953;51.650;-0.522;2023-02-12T16:25:26;9.81;75.52
68912;SHT31;55953;51.650;-0.522;2023-02-12T16:28:01;9.76;75.43
68912;SHT31;55953;51.650;-0.522;2023-02-12T16:30:37;9.71;75.72
68912;SHT31;55953;51.650;-0.522;2023-02-12T16:36:08;9.64;75.57
68912;SHT31;55953;51.650;-0.522;2023-02-12T16:41:22;9.50;75.81
68912;SHT31;55953;51.650;-0.522;2023-02-12T16:46:32;9.30;75.86
68912;SHT31;55953;51.650;-0.522;2023-02-12T16:49:16;9.25;76.06
68912;SHT31;55953;51.650;-0.522;2023-02-12T16:51:48;9.23;76.08
68912;SHT31;55953;51.650;-0.522;2023-02-12T16:57:00;9.24;76.15
68912;SHT31;55953;51.650;-0.522;2023-02-12T16:59:28;9.22;76.16
68912;SHT31;55953;51.650;-0.522;2023-02-12T17:02:05;9.21;76.11
68912;SHT31;55953;51.650;-0.522;2023-02-12T17:04:39;9.18;76.24
68912;SHT31;55953;51.650;-0.522;2023-02-12T17:07:21;9.15;76.30
68912;SHT31;55953;51.650;-0.522;2023-02-12T17:09:55;9.17;76.29
68912;SHT31;55953;51.650;-0.522;2023-02-12T17:12:24;9.28;76.15
68912;SHT31;55953;51.650;-0.522;2023-02-12T17:14:53;9.29;75.78
68912;SHT31;55953;51.650;-0.522;2023-02-12T17:17:22;9.20;76.09
68912;SHT31;55953;51.650;-0.522;2023-02-12T17:19:50;9.15;76.32
68912;SHT31;55953;51.650;-0.522;2023-02-12T17:22:21;9.19;76.35
68912;SHT31;55953;51.650;-0.522;2023-02-12T17:24:53;9.15;76.37
68912;SHT31;55953;51.650;-0.522;2023-02-12T17:27:21;9.10;76.55
68912;SHT31;55953;51.650;-0.522;2023-02-12T17:29:49;9.08;76.66
68912;SHT31;55953;51.650;-0.522;2023-02-12T17:32:17;9.13;76.49
68912;SHT31;55953;51.650;-0.522;2023-02-12T17:34:45;9.15;76.22
68912;SHT31;55953;51.650;-0.522;2023-02-12T17:37:15;9.11;76.25
68912;SHT31;55953;51.650;-0.522;2023-02-12T17:39:44;9.14;76.21
68912;SHT31;55953;51.650;-0.522;2023-02-12T17:42:12;9.18;76.09
68912;SHT31;55953;51.650;-0.522;2023-02-12T17:44:40;9.20;76.28
68912;SHT31;55953;51.650;-0.522;2023-02-12T17:47:08;9.23;76.00
68912;SHT31;55953;51.650;-0.522;2023-02-12T17:49:36;9.12;76.17
68912;SHT31;55953;51.650;-0.522;2023-02-12T17:52:06;9.06;76.45
68912;SHT31;55953;51.650;-0.522;2023-02-12T17:54:34;9.05;76.42
68912;SHT31;55953;51.650;-0.522;2023-02-12T17:57:03;9.03;76.46
68912;SHT31;55953;51.650;-0.522;2023-02-12T17:59:31;9.04;76.40
68912;SHT31;55953;51.650;-0.522;2023-02-12T18:01:59;9.05;76.46
68912;SHT31;55953;51.650;-0.522;2023-02-12T18:04:27;9.09;76.29
68912;SHT31;55953;51.650;-0.522;2023-02-12T18:06:56;9.04;76.28
68912;SHT31;55953;51.650;-0.522;2023-02-12T18:09:24;9.05;76.37
68912;SHT31;55953;51.650;-0.522;2023-02-12T18:11:52;8.99;76.10
68912;SHT31;55953;51.650;-0.522;2023-02-12T18:14:20;8.88;75.87
68912;SHT31;55953;51.650;-0.522;2023-02-12T18:16:48;8.82;75.88
68912;SHT31;55953;51.650;-0.522;2023-02-12T18:19:17;8.76;75.73
68912;SHT31;55953;51.650;-0.522;2023-02-12T18:21:45;8.77;75.96
68912;SHT31;55953;51.650;-0.522;2023-02-12T18:24:14;8.80;75.73
68912;SHT31;55953;51.650;-0.522;2023-02-12T18:26:41;8.77;75.81
68912;SHT31;55953;51.650;-0.522;2023-02-12T18:29:09;8.82;75.79
68912;SHT31;55953;51.650;-0.522;2023-02-12T18:31:38;8.85;75.69
68912;SHT31;55953;51.650;-0.522;2023-02-12T18:34:07;8.86;75.80
68912;SHT31;55953;51.650;-0.522;2023-02-12T18:36:35;8.92;75.69
68912;SHT31;55953;51.650;-0.522;2023-02-12T18:39:03;8.95;75.66
68912;SHT31;55953;51.650;-0.522;2023-02-12T18:41:34;8.93;75.91
68912;SHT31;55953;51.650;-0.522;2023-02-12T18:44:02;8.92;75.87
68912;SHT31;55953;51.650;-0.522;2023-02-12T18:46:31;8.90;76.02
68912;SHT31;55953;51.650;-0.522;2023-02-12T18:48:59;8.88;76.10
68912;SHT31;55953;51.650;-0.522;2023-02-12T18:51:28;8.88;76.32
68912;SHT31;55953;51.650;-0.522;2023-02-12T18:53:59;8.84;76.37
68912;SHT31;55953;51.650;-0.522;2023-02-12T18:56:34;8.83;76.46
68912;SHT31;55953;51.650;-0.522;2023-02-12T18:59:07;8.80;76.60
68912;SHT31;55953;51.650;-0.522;2023-02-12T19:01:38;8.85;76.65
68912;SHT31;55953;51.650;-0.522;2023-02-12T19:04:08;8.88;76.70
68912;SHT31;55953;51.650;-0.522;2023-02-12T19:06:39;8.84;76.61
68912;SHT31;55953;51.650;-0.522;2023-02-12T19:09:14;8.75;76.84
68912;SHT31;55953;51.650;-0.522;2023-02-12T19:11:47;8.73;76.84
68912;SHT31;55953;51.650;-0.522;2023-02-12T19:14:20;8.73;76.80
68912;SHT31;55953;51.650;-0.522;2023-02-12T19:16:51;8.77;76.71
68912;SHT31;55953;51.650;-0.522;2023-02-12T19:19:19;8.83;76.59
68912;SHT31;55953;51.650;-0.522;2023-02-12T19:21:48;8.83;76.63
68912;SHT31;55953;51.650;-0.522;2023-02-12T19:24:17;8.74;76.62
68912;SHT31;55953;51.650;-0.522;2023-02-12T19:26:48;8.65;76.70
68912;SHT31;55953;51.650;-0.522;2023-02-12T19:29:18;8.62;76.77